Time;durP1;ratioP1;P1;durP2;ratioP2;P2;SDS_P1;SDS_P2;PMS_P1;PMS_P2;Temp;Humidity;BMP_temperature;BMP_pressure;BME280_temperature;BME280_humidity;BME280_pressure;Samples;Min_cycle;Max_cycle;Signal;HPM_P1;HPM_P2
2022/02/02 00:01:44;;;;;;;6.13;3.30;;;;;;;;;;5056716;28;20185;-78
2022/02/02 00:04:14;;;;;;;7.80;3.28;;;;;;;;;;5065880;28;20206;-80
2022/02/02 00:06:48;;;;;;;10.88;3.60;;;;;;;;;;5067210;28;20177;-79
2022/02/02 00:09:17;;;;;;;8.13;4.00;;;;;;;;;;5060009;28;20187;-79
2022/02/02 00:14:36;;;;;;;6.47;4.35;;;;;;;;;;5075465;28;20188;-79
2022/02/02 00:17:52;;;;;;;5.32;4.30;;;;;;;;;;5067290;28;20184;-79
2022/02/02 00:20:14;;;;;;;8.95;3.97;;;;;;;;;;5066566;28;20184;-76
2022/02/02 00:22:43;;;;;;;6.95;3.63;;;;;;;;;;5066011;28;20222;-78
2022/02/02 00:27:37;;;;;;;7.18;3.80;;;;;;;;;;5073833;28;20212;-76
2022/02/02 00:30:04;;;;;;;7.18;3.58;;;;;;;;;;5076757;28;20195;-79
2022/02/02 00:34:57;;;;;;;8.77;4.43;;;;;;;;;;5066583;28;20228;-77
2022/02/02 00:37:23;;;;;;;6.20;3.58;;;;;;;;;;5069294;28;20461;-79
2022/02/02 00:39:49;;;;;;;8.10;3.70;;;;;;;;;;5099880;28;20188;-79
2022/02/02 00:42:15;;;;;;;6.60;3.65;;;;;;;;;;5094220;28;20430;-80
2022/02/02 00:44:46;;;;;;;6.63;3.70;;;;;;;;;;5089320;28;20238;-77
2022/02/02 00:47:19;;;;;;;7.97;4.07;;;;;;;;;;5085672;28;20172;-79
2022/02/02 00:49:47;;;;;;;8.45;3.83;;;;;;;;;;5085038;28;20177;-79
2022/02/02 00:52:13;;;;;;;9.45;3.22;;;;;;;;;;5101117;28;20172;-79
2022/02/02 00:54:39;;;;;;;7.75;3.65;;;;;;;;;;5089980;28;20188;-80
2022/02/02 00:57:06;;;;;;;6.72;3.63;;;;;;;;;;5090102;28;20242;-79
2022/02/02 00:59:32;;;;;;;7.28;3.67;;;;;;;;;;5090029;28;20222;-77
2022/02/02 01:01:59;;;;;;;7.80;3.50;;;;;;;;;;5100557;28;20263;-77
2022/02/02 01:04:26;;;;;;;7.82;3.45;;;;;;;;;;5099380;28;20188;-79
2022/02/02 01:09:48;;;;;;;7.35;3.67;;;;;;;;;;5087400;28;20180;-79
2022/02/02 01:17:24;;;;;;;7.37;3.70;;;;;;;;;;5083354;28;20214;-78
2022/02/02 01:28:12;;;;;;;5.78;3.65;;;;;;;;;;5060440;28;20188;-78
2022/02/02 01:30:38;;;;;;;6.38;3.55;;;;;;;;;;5060118;28;20283;-80
2022/02/02 01:33:05;;;;;;;6.70;3.58;;;;;;;;;;5059967;28;20260;-78
2022/02/02 01:35:31;;;;;;;8.55;4.20;;;;;;;;;;5059487;28;20272;-80
2022/02/02 01:37:57;;;;;;;6.97;3.75;;;;;;;;;;5043266;28;20252;-80
2022/02/02 01:40:31;;;;;;;8.40;4.13;;;;;;;;;;5040450;28;20181;-81
2022/02/02 01:43:07;;;;;;;4.78;3.60;;;;;;;;;;5056849;28;20690;-81
2022/02/02 01:55:39;;;;;;;7.32;4.55;;;;;;;;;;5063404;28;20424;-77
2022/02/02 02:01:05;;;;;;;10.55;4.55;;;;;;;;;;5053312;28;20186;-79
2022/02/02 02:03:31;;;;;;;9.40;4.15;;;;;;;;;;5052697;28;20324;-79
2022/02/02 02:05:58;;;;;;;11.23;5.40;;;;;;;;;;5036082;28;20268;-77
2022/02/02 02:08:24;;;;;;;13.10;4.82;;;;;;;;;;5064378;28;20194;-80
2022/02/02 02:10:50;;;;;;;6.00;4.53;;;;;;;;;;5047754;28;20197;-82
2022/02/02 02:14:37;;;;;;;7.95;4.95;;;;;;;;;;5034270;28;20200;-79
2022/02/02 02:16:11;;;;;;;6.28;4.82;;;;;;;;;;5039277;28;20758;-80
2022/02/02 02:18:37;;;;;;;10.30;5.35;;;;;;;;;;5055448;28;20304;-78
2022/02/02 02:21:12;;;;;;;9.05;4.72;;;;;;;;;;5061641;28;20181;-80
2022/02/02 02:23:38;;;;;;;6.15;5.13;;;;;;;;;;5051608;28;20207;-79
2022/02/02 02:26:09;;;;;;;9.23;5.63;;;;;;;;;;5049014;28;20204;-81
2022/02/02 02:28:53;;;;;;;8.85;5.40;;;;;;;;;;5047366;28;20256;-80
2022/02/02 02:31:47;;;;;;;10.48;6.15;;;;;;;;;;5032560;28;20192;-81
2022/02/02 02:34:34;;;;;;;8.63;6.00;;;;;;;;;;5049504;28;20180;-78
2022/02/02 02:55:54;;;;;;;10.73;5.00;;;;;;;;;;5101963;28;20205;-80
2022/02/02 03:31:16;;;;;;;9.52;4.93;;;;;;;;;;5094863;28;20671;-79
2022/02/02 04:06:04;;;;;;;11.13;5.05;;;;;;;;;;5005852;28;20187;-80
2022/02/02 04:08:34;;;;;;;6.18;3.92;;;;;;;;;;4988868;28;20213;-78
2022/02/02 04:11:03;;;;;;;7.47;4.45;;;;;;;;;;5001500;28;20191;-80
2022/02/02 04:51:59;;;;;;;5.95;5.03;;;;;;;;;;5069167;28;20339;-79
2022/02/02 04:54:41;;;;;;;7.50;4.63;;;;;;;;;;5053360;28;20197;-77
2022/02/02 04:58:17;;;;;;;7.45;5.13;;;;;;;;;;5068113;28;20553;-79
2022/02/02 05:10:59;;;;;;;6.47;5.68;;;;;;;;;;5080535;28;20176;-81
2022/02/02 05:17:04;;;;;;;12.00;6.68;;;;;;;;;;5066813;28;20535;-80
2022/02/02 05:51:21;;;;;;;2.80;2.17;;;;;;;;;;5004431;28;20717;-79
2022/02/02 05:53:47;;;;;;;7.53;2.90;;;;;;;;;;5004155;28;20246;-80
2022/02/02 05:56:13;;;;;;;3.30;2.08;;;;;;;;;;4987435;28;20198;-79
2022/02/02 05:58:39;;;;;;;4.85;2.20;;;;;;;;;;4988407;28;20265;-79
2022/02/02 06:01:11;;;;;;;2.60;2.40;;;;;;;;;;5004519;28;20708;-78
2022/02/02 06:03:40;;;;;;;4.00;2.35;;;;;;;;;;5003800;28;20230;-77
2022/02/02 06:06:06;;;;;;;2.92;1.83;;;;;;;;;;4987340;28;20180;-78
2022/02/02 06:08:34;;;;;;;3.05;1.90;;;;;;;;;;5006507;28;20584;-79
2022/02/02 06:11:03;;;;;;;4.72;1.52;;;;;;;;;;5083146;28;20184;-80
2022/02/02 06:13:41;;;;;;;6.90;2.38;;;;;;;;;;5082581;28;20172;-76
2022/02/02 06:16:08;;;;;;;3.63;1.83;;;;;;;;;;5078378;28;20208;-80
2022/02/02 06:18:35;;;;;;;2.15;1.95;;;;;;;;;;5071366;28;20248;-80
2022/02/02 06:21:04;;;;;;;1.85;1.50;;;;;;;;;;5071308;28;20219;-78
2022/02/02 06:23:30;;;;;;;7.05;2.47;;;;;;;;;;5070821;28;20250;-79
2022/02/02 06:25:59;;;;;;;5.40;1.90;;;;;;;;;;5066446;28;20184;-79
2022/02/02 06:28:25;;;;;;;6.10;1.90;;;;;;;;;;5063981;28;20240;-79
2022/02/02 06:30:57;;;;;;;3.75;2.03;;;;;;;;;;5056311;28;20185;-79
2022/02/02 06:33:26;;;;;;;4.32;1.90;;;;;;;;;;5062383;28;20633;-79
2022/02/02 06:35:52;;;;;;;3.75;1.67;;;;;;;;;;5063858;28;20463;-77
2022/02/02 06:38:20;;;;;;;2.72;1.45;;;;;;;;;;5072382;28;20227;-78
2022/02/02 06:40:46;;;;;;;5.28;1.70;;;;;;;;;;5087774;28;20172;-77
2022/02/02 06:43:13;;;;;;;3.83;1.73;;;;;;;;;;5098981;28;20267;-80
2022/02/02 06:45:40;;;;;;;7.60;1.73;;;;;;;;;;5090845;28;20184;-80
2022/02/02 06:48:06;;;;;;;6.78;2.20;;;;;;;;;;5092644;28;20176;-80
2022/02/02 06:50:37;;;;;;;5.53;3.00;;;;;;;;;;5092410;28;20271;-81
2022/02/02 06:55:42;;;;;;;2.40;1.30;;;;;;;;;;5096932;28;20193;-78
2022/02/02 06:58:21;;;;;;;2.55;1.90;;;;;;;;;;5090004;28;20184;-79
2022/02/02 07:06:18;;;;;;;2.97;1.13;;;;;;;;;;5101237;28;20184;-82
2022/02/02 07:11:23;;;;;;;2.88;1.73;;;;;;;;;;5097893;28;20246;-82
2022/02/02 07:14:11;;;;;;;3.53;1.60;;;;;;;;;;5100150;28;20192;-82
2022/02/02 07:27:38;;;;;;;2.88;1.50;;;;;;;;;;5033908;28;20190;-83
2022/02/02 07:32:48;;;;;;;4.53;1.55;;;;;;;;;;5041113;28;20189;-83
2022/02/02 07:37:43;;;;;;;3.55;1.33;;;;;;;;;;5041249;28;20217;-82
2022/02/02 07:40:10;;;;;;;5.05;1.20;;;;;;;;;;5040116;28;20182;-82
2022/02/02 07:42:44;;;;;;;2.88;1.25;;;;;;;;;;5039432;28;20186;-82
2022/02/02 07:45:12;;;;;;;3.72;1.38;;;;;;;;;;5034576;28;20217;-83
2022/02/02 07:47:59;;;;;;;2.95;1.83;;;;;;;;;;5039463;28;20202;-77
2022/02/02 07:50:28;;;;;;;2.90;2.10;;;;;;;;;;5012661;28;20182;-81
2022/02/02 07:52:58;;;;;;;3.22;1.30;;;;;;;;;;5025114;28;20173;-80
2022/02/02 07:55:27;;;;;;;2.97;1.55;;;;;;;;;;5025505;28;20178;-82
2022/02/02 07:57:56;;;;;;;2.97;1.30;;;;;;;;;;5055621;28;20625;-82
2022/02/02 08:00:23;;;;;;;5.53;1.98;;;;;;;;;;5092581;28;20195;-78
2022/02/02 08:05:22;;;;;;;5.43;1.10;;;;;;;;;;5087314;28;20195;-81
2022/02/02 08:08:00;;;;;;;10.00;2.35;;;;;;;;;;5086605;28;20171;-81
2022/02/02 08:10:27;;;;;;;3.00;1.27;;;;;;;;;;5098991;28;20370;-80
2022/02/02 08:13:00;;;;;;;4.95;2.15;;;;;;;;;;5090956;28;20173;-79
2022/02/02 08:15:30;;;;;;;2.47;1.30;;;;;;;;;;5090457;28;20248;-80
2022/02/02 08:17:56;;;;;;;3.90;1.23;;;;;;;;;;5095907;28;20743;-80
2022/02/02 08:20:23;;;;;;;2.67;1.38;;;;;;;;;;5089430;28;20209;-80
2022/02/02 08:22:49;;;;;;;8.50;1.55;;;;;;;;;;5092492;28;20191;-81
2022/02/02 08:25:25;;;;;;;3.38;1.20;;;;;;;;;;5101554;28;20227;-81
2022/02/02 08:27:53;;;;;;;0.90;0.88;;;;;;;;;;5089023;28;20236;-81
2022/02/02 08:30:21;;;;;;;2.72;1.40;;;;;;;;;;5094709;28;20245;-80
2022/02/02 08:32:53;;;;;;;2.58;1.33;;;;;;;;;;5100814;28;20214;-79
2022/02/02 08:35:22;;;;;;;1.38;1.00;;;;;;;;;;5098345;28;20249;-81
2022/02/02 08:37:56;;;;;;;2.15;1.38;;;;;;;;;;5077443;28;20224;-81
2022/02/02 08:40:28;;;;;;;3.42;1.10;;;;;;;;;;5071094;28;20176;-80
2022/02/02 08:42:55;;;;;;;2.38;1.00;;;;;;;;;;5068807;28;20181;-82
2022/02/02 08:45:28;;;;;;;1.10;1.00;;;;;;;;;;5047516;28;20185;-82
2022/02/02 08:48:02;;;;;;;5.72;1.38;;;;;;;;;;5068814;28;20252;-82
2022/02/02 08:50:43;;;;;;;2.78;1.45;;;;;;;;;;5052193;28;20201;-82
2022/02/02 08:53:33;;;;;;;1.70;1.40;;;;;;;;;;5057594;28;20234;-81
2022/02/02 08:56:14;;;;;;;3.78;1.20;;;;;;;;;;5080923;28;20188;-81
2022/02/02 08:58:49;;;;;;;3.80;1.40;;;;;;;;;;5080322;28;20499;-82
2022/02/02 09:01:27;;;;;;;1.58;1.10;;;;;;;;;;5057600;28;20339;-83
2022/02/02 09:06:38;;;;;;;1.88;1.20;;;;;;;;;;5072390;28;20199;-79
2022/02/02 09:09:13;;;;;;;9.23;1.83;;;;;;;;;;5068389;28;20177;-81
2022/02/02 09:35:58;;;;;;;1.80;0.98;;;;;;;;;;5068252;28;20193;-83
2022/02/02 09:38:24;;;;;;;3.40;1.50;;;;;;;;;;5074802;28;20227;-81
2022/02/02 09:43:23;;;;;;;3.75;1.42;;;;;;;;;;5088372;28;20168;-80
2022/02/02 09:45:56;;;;;;;1.73;1.10;;;;;;;;;;5088991;28;20219;-82
2022/02/02 09:48:33;;;;;;;2.35;1.30;;;;;;;;;;5097756;28;20180;-81
2022/02/02 09:51:06;;;;;;;1.75;1.58;;;;;;;;;;5097305;28;20688;-81
2022/02/02 09:53:51;;;;;;;1.63;1.52;;;;;;;;;;5089312;28;20207;-80
2022/02/02 09:58:59;;;;;;;2.00;1.55;;;;;;;;;;5086339;28;20192;-81
2022/02/02 10:04:34;;;;;;;3.38;1.17;;;;;;;;;;5094424;28;20568;-82
2022/02/02 10:15:15;;;;;;;2.10;1.90;;;;;;;;;;5101683;28;20263;-81
2022/02/02 10:17:41;;;;;;;2.70;2.50;;;;;;;;;;5102987;28;20194;-82
2022/02/02 10:20:17;;;;;;;2.33;2.13;;;;;;;;;;5099330;28;20184;-82
2022/02/02 10:22:48;;;;;;;2.90;2.40;;;;;;;;;;5093027;28;20203;-81
2022/02/02 10:25:25;;;;;;;2.90;2.70;;;;;;;;;;5090274;28;20684;-79
2022/02/02 10:27:51;;;;;;;3.60;3.30;;;;;;;;;;5096601;28;20651;-79
2022/02/02 10:30:19;;;;;;;3.92;3.13;;;;;;;;;;5092821;28;20207;-80
2022/02/02 10:32:47;;;;;;;4.70;3.90;;;;;;;;;;5089593;28;20187;-80
2022/02/02 10:35:28;;;;;;;4.22;3.83;;;;;;;;;;5102003;28;20280;-83
2022/02/02 10:38:05;;;;;;;3.30;3.00;;;;;;;;;;5087008;28;20212;-80
2022/02/02 10:40:50;;;;;;;3.40;2.80;;;;;;;;;;5102005;28;20338;-81
2022/02/02 10:43:20;;;;;;;4.05;3.00;;;;;;;;;;5090280;28;20172;-81
2022/02/02 10:45:46;;;;;;;2.63;2.42;;;;;;;;;;5089817;28;20332;-81
2022/02/02 10:48:23;;;;;;;3.03;2.33;;;;;;;;;;5075684;28;20199;-80
2022/02/02 10:51:00;;;;;;;3.17;2.13;;;;;;;;;;5073815;28;20179;-79
2022/02/02 10:53:36;;;;;;;3.33;3.03;;;;;;;;;;5095375;28;20624;-81
2022/02/02 10:56:30;;;;;;;2.08;1.90;;;;;;;;;;5075437;28;20194;-81
2022/02/02 11:01:47;;;;;;;2.03;1.10;;;;;;;;;;5101676;28;20743;-82
2022/02/02 11:06:59;;;;;;;7.22;5.68;;;;;;;;;;5102190;28;20202;-81
2022/02/02 11:09:25;;;;;;;2.90;2.40;;;;;;;;;;5077509;28;20180;-81
2022/02/02 11:11:52;;;;;;;1.80;1.13;;;;;;;;;;5084382;28;20175;-82
2022/02/02 11:14:24;;;;;;;1.90;1.38;;;;;;;;;;5072672;28;20187;-83
2022/02/02 11:16:53;;;;;;;1.45;1.10;;;;;;;;;;5067642;28;21022;-82
2022/02/02 11:19:21;;;;;;;1.02;0.93;;;;;;;;;;5079898;28;20175;-81
2022/02/02 11:21:47;;;;;;;1.33;1.20;;;;;;;;;;5090502;28;20184;-80
2022/02/02 11:24:14;;;;;;;1.95;1.10;;;;;;;;;;5074682;28;20290;-83
2022/02/02 11:26:47;;;;;;;1.60;0.70;;;;;;;;;;5100587;28;20182;-82
2022/02/02 11:29:43;;;;;;;0.70;0.70;;;;;;;;;;5087250;28;20176;-81
2022/02/02 11:32:13;;;;;;;0.85;0.80;;;;;;;;;;5050447;28;20249;-79
2022/02/02 11:34:40;;;;;;;1.38;0.90;;;;;;;;;;5086430;28;20172;-78
2022/02/02 11:37:07;;;;;;;0.98;0.80;;;;;;;;;;5086145;28;20186;-80
2022/02/02 11:39:45;;;;;;;0.75;0.70;;;;;;;;;;5091999;28;20217;-81
2022/02/02 11:42:39;;;;;;;1.23;1.13;;;;;;;;;;5097321;28;20262;-83
2022/02/02 11:45:28;;;;;;;3.65;1.40;;;;;;;;;;5097726;28;20200;-78
2022/02/02 11:47:54;;;;;;;1.10;1.00;;;;;;;;;;5089000;28;20244;-80
2022/02/02 11:50:39;;;;;;;1.77;1.15;;;;;;;;;;5088241;28;20188;-79
2022/02/02 11:53:05;;;;;;;2.85;1.40;;;;;;;;;;5086336;28;20222;-83
2022/02/02 11:55:31;;;;;;;1.50;1.30;;;;;;;;;;5086653;28;20168;-82
2022/02/02 11:58:01;;;;;;;1.90;1.67;;;;;;;;;;5089710;28;20423;-82
2022/02/02 12:00:43;;;;;;;2.40;2.00;;;;;;;;;;5088494;28;20537;-82
2022/02/02 12:08:26;;;;;;;2.90;2.10;;;;;;;;;;5101158;28;20430;-81
2022/02/02 12:57:19;;;;;;;2.60;2.20;;;;;;;;;;5068255;28;20618;-82
2022/02/02 13:02:16;;;;;;;3.85;2.25;;;;;;;;;;5069813;28;20189;-82
2022/02/02 13:04:43;;;;;;;2.75;1.63;;;;;;;;;;5047876;28;20200;-82
2022/02/02 13:07:10;;;;;;;3.28;1.40;;;;;;;;;;5062016;28;20419;-83
2022/02/02 13:09:37;;;;;;;2.97;1.70;;;;;;;;;;5052885;28;20193;-83
2022/02/02 13:12:22;;;;;;;2.22;1.20;;;;;;;;;;5068717;28;20515;-83
2022/02/02 13:17:28;;;;;;;2.05;1.08;;;;;;;;;;5079285;28;20677;-83
2022/02/02 13:19:57;;;;;;;1.55;1.45;;;;;;;;;;5064370;28;20189;-82
2022/02/02 13:22:24;;;;;;;2.10;1.13;;;;;;;;;;5065472;28;20229;-80
2022/02/02 13:24:49;;;;;;;1.10;1.00;;;;;;;;;;5053952;28;20214;-85
2022/02/02 13:27:19;;;;;;;1.30;1.13;;;;;;;;;;5068660;28;20213;-82
2022/02/02 13:29:49;;;;;;;1.95;1.00;;;;;;;;;;5065299;28;20179;-81
2022/02/02 13:32:28;;;;;;;0.80;0.80;;;;;;;;;;5066373;28;20186;-80
2022/02/02 13:35:18;;;;;;;4.43;1.08;;;;;;;;;;5064686;28;20185;-82
2022/02/02 13:38:13;;;;;;;1.75;1.05;;;;;;;;;;5067957;28;20212;-80
2022/02/02 13:43:52;;;;;;;1.95;0.90;;;;;;;;;;5091009;28;20238;-82
2022/02/02 13:46:40;;;;;;;1.27;0.95;;;;;;;;;;5089342;28;20176;-82
2022/02/02 13:57:09;;;;;;;2.35;0.93;;;;;;;;;;5091753;28;20621;-81
2022/02/02 14:05:23;;;;;;;1.48;1.00;;;;;;;;;;5050271;28;20343;-82
2022/02/02 14:08:03;;;;;;;1.20;1.00;;;;;;;;;;5046140;28;20177;-85
2022/02/02 14:32:07;;;;;;;1.08;0.90;;;;;;;;;;5061751;28;20517;-81
2022/02/02 14:34:33;;;;;;;1.60;0.80;;;;;;;;;;5042591;28;20215;-81
2022/02/02 14:36:59;;;;;;;1.57;1.13;;;;;;;;;;5046393;28;20185;-80
2022/02/02 14:39:42;;;;;;;4.07;1.00;;;;;;;;;;5096041;28;20463;-84
2022/02/02 14:42:14;;;;;;;1.92;0.90;;;;;;;;;;5091869;28;20199;-81
2022/02/02 14:44:42;;;;;;;1.88;0.90;;;;;;;;;;5100170;28;20298;-81
2022/02/02 14:47:13;;;;;;;1.73;1.25;;;;;;;;;;5112208;28;20245;-83
2022/02/02 14:49:55;;;;;;;1.80;1.33;;;;;;;;;;5094465;28;20191;-82
2022/02/02 14:52:33;;;;;;;4.00;1.30;;;;;;;;;;5103085;28;20254;-82
2022/02/02 15:05:26;;;;;;;2.10;0.93;;;;;;;;;;5093371;28;20203;-80
2022/02/02 15:25:11;;;;;;;2.47;2.28;;;;;;;;;;5038217;28;20589;-82
2022/02/02 15:27:35;;;;;;;3.47;1.08;;;;;;;;;;5037438;28;20198;-82
2022/02/02 15:30:23;;;;;;;2.58;0.90;;;;;;;;;;5015878;28;20210;-82
2022/02/02 15:32:52;;;;;;;1.20;1.10;;;;;;;;;;5017630;28;20194;-80
2022/02/02 15:35:18;;;;;;;1.67;1.10;;;;;;;;;;5024324;28;20197;-83
2022/02/02 15:37:58;;;;;;;1.38;1.20;;;;;;;;;;5024522;28;20225;-82
2022/02/02 15:40:33;;;;;;;2.28;1.05;;;;;;;;;;5022438;28;20193;-79
2022/02/02 15:43:12;;;;;;;1.55;1.30;;;;;;;;;;5037520;28;20178;-83
2022/02/02 15:57:12;;;;;;;2.35;1.10;;;;;;;;;;5092749;28;20293;-82
2022/02/02 15:59:14;;;;;;;1.35;1.23;;;;;;;;;;5087496;28;20202;-82
2022/02/02 16:04:31;;;;;;;1.77;1.17;;;;;;;;;;5103486;28;20211;-82
2022/02/02 16:07:02;;;;;;;4.10;1.65;;;;;;;;;;5096218;28;20168;-83
2022/02/02 16:09:36;;;;;;;1.77;1.23;;;;;;;;;;5092200;28;20517;-83
2022/02/02 16:36:08;;;;;;;1.50;1.27;;;;;;;;;;5056666;28;20201;-82
2022/02/02 16:38:38;;;;;;;1.50;1.40;;;;;;;;;;5032818;28;20236;-81
2022/02/02 16:42:54;;;;;;;2.15;1.60;;;;;;;;;;5033836;28;20177;-82
2022/02/02 16:43:50;;;;;;;1.60;1.48;;;;;;;;;;5060147;28;20200;-81
2022/02/02 16:46:16;;;;;;;1.43;1.33;;;;;;;;;;5048531;28;20185;-83
2022/02/02 16:48:42;;;;;;;1.52;1.30;;;;;;;;;;5073889;28;20433;-82
2022/02/02 16:51:09;;;;;;;1.67;1.30;;;;;;;;;;5090979;28;20686;-83
2022/02/02 16:53:43;;;;;;;2.05;1.40;;;;;;;;;;5094181;28;20444;-82
2022/02/02 16:56:33;;;;;;;1.50;1.40;;;;;;;;;;5092514;28;20187;-82
2022/02/02 17:34:52;;;;;;;1.88;1.40;;;;;;;;;;5064081;28;20191;-82
2022/02/02 17:37:42;;;;;;;26.13;12.63;;;;;;;;;;5062811;28;20288;-83
2022/02/02 17:40:14;;;;;;;508.55;305.65;;;;;;;;;;5047202;28;20181;-82
2022/02/02 17:45:44;;;;;;;56.17;32.08;;;;;;;;;;5062215;28;20488;-83
2022/02/02 17:57:10;;;;;;;12.32;9.70;;;;;;;;;;5091148;28;20563;-83
2022/02/02 18:21:05;;;;;;;9.45;7.05;;;;;;;;;;5062254;28;20222;-83
2022/02/02 18:23:43;;;;;;;3.53;1.98;;;;;;;;;;5045747;28;20627;-82
2022/02/02 18:26:20;;;;;;;2.90;2.42;;;;;;;;;;5046758;28;20227;-82
2022/02/02 18:29:14;;;;;;;2.42;2.22;;;;;;;;;;5036543;28;20242;-82
2022/02/02 18:34:52;;;;;;;4.30;2.90;;;;;;;;;;5062717;28;20276;-82
2022/02/02 18:37:08;;;;;;;4.47;3.20;;;;;;;;;;5054832;28;20197;-79
2022/02/02 18:48:03;;;;;;;7.50;5.75;;;;;;;;;;5088298;28;20195;-79
2022/02/02 18:56:04;;;;;;;9.57;5.90;;;;;;;;;;5091776;28;20430;-79
2022/02/02 18:58:42;;;;;;;11.13;6.38;;;;;;;;;;5101900;28;20421;-79
2022/02/02 19:01:22;;;;;;;9.63;6.05;;;;;;;;;;5088595;28;20187;-80
2022/02/02 19:55:30;;;;;;;12.48;10.02;;;;;;;;;;4995676;28;20188;-80
2022/02/02 20:11:40;;;;;;;7.07;6.28;;;;;;;;;;4963412;28;20184;-79
2022/02/02 20:14:06;;;;;;;7.20;5.85;;;;;;;;;;4964192;28;20184;-79
2022/02/02 20:16:33;;;;;;;5.95;5.32;;;;;;;;;;4998097;28;20290;-79
2022/02/02 20:19:02;;;;;;;7.15;5.63;;;;;;;;;;5021859;28;20190;-79
2022/02/02 20:21:33;;;;;;;9.43;5.82;;;;;;;;;;5021237;28;20616;-79
2022/02/02 20:24:01;;;;;;;5.35;4.10;;;;;;;;;;5019964;28;20202;-80
2022/02/02 20:26:29;;;;;;;3.30;3.00;;;;;;;;;;5020057;28;20285;-79
2022/02/02 20:28:55;;;;;;;4.72;3.53;;;;;;;;;;5005574;28;20361;-79
2022/02/02 20:31:21;;;;;;;4.60;3.08;;;;;;;;;;5047810;28;20184;-78
2022/02/02 20:33:47;;;;;;;3.55;2.90;;;;;;;;;;5091109;28;20196;-80
2022/02/02 20:36:14;;;;;;;2.67;2.45;;;;;;;;;;5105961;28;20180;-79
2022/02/02 20:38:41;;;;;;;4.97;3.40;;;;;;;;;;5097822;28;20745;-79
2022/02/02 20:41:07;;;;;;;4.13;3.00;;;;;;;;;;5085687;28;20215;-79
2022/02/02 21:10:30;;;;;;;8.68;5.90;;;;;;;;;;5088145;28;20206;-79
2022/02/02 21:15:42;;;;;;;5.53;4.93;;;;;;;;;;5093425;28;20253;-80
2022/02/02 21:18:18;;;;;;;5.75;4.35;;;;;;;;;;5096489;28;20186;-79
2022/02/02 21:28:38;;;;;;;4.35;3.90;;;;;;;;;;5088141;28;20256;-80
2022/02/02 21:31:04;;;;;;;8.48;5.22;;;;;;;;;;5087179;28;20176;-80
2022/02/02 21:33:31;;;;;;;8.27;5.35;;;;;;;;;;5086510;28;20200;-79
2022/02/02 21:35:58;;;;;;;5.35;4.70;;;;;;;;;;5090824;28;20180;-79
2022/02/02 21:40:56;;;;;;;6.13;4.38;;;;;;;;;;5085162;28;20195;-80
2022/02/02 21:43:23;;;;;;;5.60;4.90;;;;;;;;;;5101157;28;20176;-79
2022/02/02 21:45:49;;;;;;;4.18;3.78;;;;;;;;;;5088494;28;20197;-79
2022/02/02 21:48:15;;;;;;;5.90;4.40;;;;;;;;;;5086576;28;20188;-79
2022/02/02 21:50:49;;;;;;;7.65;5.10;;;;;;;;;;5087846;28;20191;-79
2022/02/02 21:53:15;;;;;;;7.50;5.10;;;;;;;;;;5085298;28;20177;-79
2022/02/02 21:55:42;;;;;;;7.20;5.63;;;;;;;;;;5083441;28;20188;-79
2022/02/02 21:58:08;;;;;;;6.93;5.57;;;;;;;;;;5089096;28;20590;-79
2022/02/02 22:00:34;;;;;;;5.78;4.82;;;;;;;;;;5090327;28;20198;-80
2022/02/02 22:03:00;;;;;;;5.40;4.10;;;;;;;;;;5096825;28;20194;-79
2022/02/02 22:05:26;;;;;;;4.40;3.30;;;;;;;;;;5093538;28;20199;-79
2022/02/02 22:07:52;;;;;;;4.10;3.67;;;;;;;;;;5090825;28;20187;-80
2022/02/02 22:10:20;;;;;;;3.80;3.45;;;;;;;;;;5091950;28;20532;-79
2022/02/02 22:12:46;;;;;;;5.20;3.40;;;;;;;;;;5097619;28;20172;-80
2022/02/02 22:15:20;;;;;;;5.28;3.78;;;;;;;;;;5097539;28;20259;-79
2022/02/02 22:17:46;;;;;;;3.95;2.95;;;;;;;;;;5097347;28;20188;-79
2022/02/02 22:20:14;;;;;;;5.65;3.00;;;;;;;;;;5089438;28;20187;-79
2022/02/02 22:22:41;;;;;;;5.50;2.60;;;;;;;;;;5087170;28;20169;-79
2022/02/02 22:25:08;;;;;;;3.90;1.60;;;;;;;;;;5092115;28;20203;-80
2022/02/02 22:27:34;;;;;;;3.70;1.60;;;;;;;;;;5092467;28;20187;-80
2022/02/02 22:30:01;;;;;;;5.97;1.80;;;;;;;;;;5092457;28;20180;-79
2022/02/02 22:32:27;;;;;;;3.05;1.90;;;;;;;;;;5090142;28;20183;-80
2022/02/02 22:34:53;;;;;;;5.75;2.15;;;;;;;;;;5086224;28;20200;-80
2022/02/02 22:37:19;;;;;;;2.80;1.77;;;;;;;;;;5090312;28;20185;-79
2022/02/02 22:39:46;;;;;;;3.13;2.38;;;;;;;;;;5091726;28;20492;-80
2022/02/02 22:42:14;;;;;;;3.70;2.05;;;;;;;;;;5075288;28;20191;-80
2022/02/02 22:44:40;;;;;;;2.35;1.35;;;;;;;;;;5075486;28;20342;-79
2022/02/02 22:47:08;;;;;;;2.90;1.90;;;;;;;;;;5069348;28;20180;-79
2022/02/02 22:49:36;;;;;;;2.50;1.48;;;;;;;;;;5075781;28;20168;-79
2022/02/02 22:52:03;;;;;;;5.72;3.15;;;;;;;;;;5081406;28;20172;-79
2022/02/02 22:54:29;;;;;;;7.05;2.63;;;;;;;;;;5076136;28;20561;-79
2022/02/02 22:56:55;;;;;;;2.70;2.20;;;;;;;;;;5074905;28;20411;-79
2022/02/02 22:59:21;;;;;;;4.32;2.08;;;;;;;;;;5102181;28;20203;-79
2022/02/02 23:01:54;;;;;;;2.78;1.52;;;;;;;;;;5070157;28;20184;-79
2022/02/02 23:04:20;;;;;;;5.85;2.00;;;;;;;;;;5082994;28;20223;-79
2022/02/02 23:06:46;;;;;;;2.38;2.05;;;;;;;;;;5080031;28;20184;-79
2022/02/02 23:09:13;;;;;;;4.25;1.95;;;;;;;;;;5076040;28;20179;-79
2022/02/02 23:11:39;;;;;;;4.18;1.90;;;;;;;;;;5082467;28;20182;-79
2022/02/02 23:14:06;;;;;;;5.60;2.80;;;;;;;;;;5080279;28;20188;-79
2022/02/02 23:16:39;;;;;;;4.95;2.10;;;;;;;;;;5079741;28;20233;-79
2022/02/02 23:19:05;;;;;;;3.50;2.15;;;;;;;;;;5071417;28;20240;-79
2022/02/02 23:21:31;;;;;;;2.22;2.00;;;;;;;;;;5085625;28;20195;-78
2022/02/02 23:24:01;;;;;;;2.97;1.75;;;;;;;;;;5093028;28;20210;-79
2022/02/02 23:26:27;;;;;;;3.88;1.90;;;;;;;;;;5069217;28;20264;-79
2022/02/02 23:28:54;;;;;;;3.58;1.80;;;;;;;;;;5067294;28;20207;-78
2022/02/02 23:31:21;;;;;;;5.07;2.10;;;;;;;;;;5069704;28;20176;-79
2022/02/02 23:33:47;;;;;;;3.03;2.05;;;;;;;;;;5098785;28;20255;-78
2022/02/02 23:36:14;;;;;;;4.90;1.80;;;;;;;;;;5083310;28;20648;-79
2022/02/02 23:38:40;;;;;;;3.72;1.63;;;;;;;;;;5086616;28;20242;-79
2022/02/02 23:43:41;;;;;;;4.07;1.83;;;;;;;;;;5079364;28;20176;-79
2022/02/02 23:46:13;;;;;;;3.38;1.60;;;;;;;;;;5053303;28;20185;-79
2022/02/02 23:49:02;;;;;;;5.50;1.50;;;;;;;;;;5070871;28;20173;-79
2022/02/02 23:51:34;;;;;;;3.33;1.33;;;;;;;;;;5061686;28;20189;-79
2022/02/02 23:54:02;;;;;;;3.63;1.58;;;;;;;;;;5053835;28;20187;-79
2022/02/02 23:56:47;;;;;;;2.90;2.05;;;;;;;;;;5068996;28;20180;-79
2022/02/02 23:59:23;;;;;;;4.25;2.15;;;;;;;;;;5049332;28;20181;-79
